createdAt,value
2022-08-30T00:00:50.674Z,100.00
2022-08-30T00:05:56.359Z,100.00
2022-08-30T00:11:01.537Z,100.00
2022-08-30T00:16:07.816Z,100.00
2022-08-30T00:21:12.369Z,100.00
2022-08-30T00:26:16.244Z,100.00
2022-08-30T00:31:21.378Z,100.00
2022-08-30T00:36:25.202Z,100.00
2022-08-30T00:41:28.913Z,100.00
2022-08-30T00:46:34.028Z,100.00
2022-08-30T00:51:38.260Z,100.00
2022-08-30T00:56:42.276Z,100.00
2022-08-30T01:01:47.500Z,100.00
2022-08-30T01:06:52.090Z,100.00
2022-08-30T01:11:55.941Z,100.00
2022-08-30T01:17:02.658Z,100.00
2022-08-30T01:22:17.244Z,100.00
2022-08-30T01:27:23.353Z,100.00
2022-08-30T01:32:29.736Z,100.00
2022-08-30T01:37:35.571Z,100.00
2022-08-30T01:42:40.912Z,100.00
2022-08-30T01:47:44.854Z,100.00
2022-08-30T01:52:48.590Z,100.00
2022-08-30T01:57:53.748Z,100.00
2022-08-30T02:02:58.084Z,100.00
2022-08-30T02:08:01.852Z,100.00
2022-08-30T02:13:06.980Z,100.00
2022-08-30T02:18:11.672Z,100.00
2022-08-30T02:23:15.625Z,100.00
2022-08-30T02:28:21.200Z,100.00
2022-08-30T02:33:25.071Z,100.00
2022-08-30T02:38:28.849Z,100.00
2022-08-30T02:43:33.979Z,100.00
2022-08-30T02:48:37.815Z,100.00
2022-08-30T02:53:42.679Z,100.00
2022-08-30T02:58:48.270Z,100.00
2022-08-30T03:03:52.096Z,100.00
2022-08-30T03:08:55.923Z,100.00
2022-08-30T03:14:00.985Z,100.00
2022-08-30T03:19:04.726Z,100.00
2022-08-30T03:24:08.870Z,100.00
2022-08-30T03:29:13.991Z,100.00
2022-08-30T03:34:17.896Z,100.00
2022-08-30T03:39:23.530Z,100.00
2022-08-30T03:44:28.631Z,100.00
2022-08-30T03:49:32.795Z,100.00
2022-08-30T03:54:36.555Z,100.00
2022-08-30T03:59:43.044Z,100.00
2022-08-30T04:04:46.795Z,100.00
2022-08-30T04:09:50.563Z,100.00
2022-08-30T04:14:56.164Z,100.00
2022-08-30T04:19:59.888Z,100.00
2022-08-30T04:25:03.776Z,100.00
2022-08-30T04:30:10.153Z,100.00
2022-08-30T04:35:15.467Z,100.00
2022-08-30T04:40:19.464Z,100.00
2022-08-30T04:45:24.752Z,100.00
2022-08-30T04:50:28.537Z,100.00
2022-08-30T04:55:32.649Z,100.00
2022-08-30T05:00:38.363Z,100.00
2022-08-30T05:05:42.480Z,100.00
2022-08-30T05:10:48.584Z,100.00
2022-08-30T05:15:54.255Z,100.00
2022-08-30T05:21:06.077Z,100.00
2022-08-30T05:26:11.799Z,100.00
2022-08-30T05:31:19.903Z,100.00
2022-08-30T05:36:26.594Z,100.00
2022-08-30T05:41:30.338Z,100.00
2022-08-30T05:46:37.025Z,100.00
2022-08-30T05:51:42.955Z,100.00
2022-08-30T05:56:47.342Z,100.00
2022-08-30T06:01:52.473Z,100.00
2022-08-30T06:06:56.351Z,100.00
2022-08-30T06:12:00.143Z,100.00
2022-08-30T06:17:05.499Z,100.00
2022-08-30T06:22:09.274Z,100.00
2022-08-30T06:27:13.011Z,100.00
2022-08-30T06:32:18.273Z,100.00
2022-08-30T06:37:30.082Z,100.00
2022-08-30T06:42:34.940Z,100.00
2022-08-30T06:47:40.992Z,100.00
2022-08-30T06:52:45.751Z,100.00
2022-08-30T06:57:51.011Z,100.00
2022-08-30T07:02:56.851Z,100.00
2022-08-30T07:08:00.587Z,100.00
2022-08-30T07:13:04.422Z,100.00
2022-08-30T07:18:27.250Z,100.00
2022-08-30T07:23:30.948Z,100.00
2022-08-30T07:28:35.671Z,100.00
2022-08-30T07:33:41.268Z,100.00
2022-08-30T07:38:45.974Z,100.00
2022-08-30T07:43:49.777Z,100.00
2022-08-30T07:48:56.080Z,100.00
2022-08-30T07:54:00.455Z,100.00
2022-08-30T07:59:04.301Z,100.00
2022-08-30T08:04:09.710Z,100.00
2022-08-30T08:09:16.139Z,100.00
2022-08-30T08:14:21.471Z,100.00
2022-08-30T08:19:26.567Z,100.00
2022-08-30T08:24:31.093Z,100.00
2022-08-30T08:29:34.807Z,100.00
2022-08-30T08:34:39.957Z,100.00
2022-08-30T08:39:43.676Z,100.00
2022-08-30T08:44:55.815Z,100.00
2022-08-30T08:50:04.058Z,100.00
2022-08-30T08:55:09.619Z,100.00
2022-08-30T09:00:15.485Z,100.00
2022-08-30T09:05:23.598Z,100.00
2022-08-30T09:10:47.009Z,100.00
2022-08-30T09:15:55.031Z,100.00
2022-08-30T09:21:07.354Z,100.00
2022-08-30T09:26:11.119Z,100.00
2022-08-30T09:31:20.398Z,100.00
2022-08-30T09:36:29.993Z,100.00
2022-08-30T09:41:42.559Z,100.00
2022-08-30T09:46:50.859Z,100.00
2022-08-30T09:52:08.083Z,100.00
2022-08-30T09:57:33.929Z,100.00
2022-08-30T10:02:48.594Z,100.00
2022-08-30T10:08:00.889Z,100.00
2022-08-30T10:13:22.659Z,100.00
2022-08-30T10:18:34.473Z,92.97
2022-08-30T10:23:45.579Z,84.68
2022-08-30T10:28:57.106Z,82.23
2022-08-30T10:34:06.479Z,76.36
2022-08-30T10:39:19.233Z,68.34
2022-08-30T10:44:27.993Z,64.10
2022-08-30T10:49:36.483Z,63.99
2022-08-30T10:54:51.811Z,58.81
2022-08-30T11:00:00.739Z,53.74
2022-08-30T11:05:33.332Z,53.51
2022-08-30T11:10:52.405Z,50.08
2022-08-30T11:16:00.767Z,51.91
2022-08-30T11:21:25.745Z,51.00
2022-08-30T11:27:00.389Z,50.86
2022-08-30T11:32:39.559Z,49.69
2022-08-30T11:37:44.980Z,49.70
2022-08-30T11:42:53.636Z,49.24
2022-08-30T11:47:59.541Z,48.01
2022-08-30T11:53:14.533Z,47.48
2022-08-30T11:58:31.292Z,47.59
2022-08-30T12:03:35.440Z,46.46
2022-08-30T12:08:59.557Z,45.51
2022-08-30T12:14:09.611Z,44.77
2022-08-30T12:19:18.903Z,43.64
2022-08-30T12:24:27.008Z,43.21
2022-08-30T12:29:32.703Z,41.82
2022-08-30T12:34:38.663Z,41.61
2022-08-30T12:39:44.466Z,41.85
2022-08-30T12:44:51.927Z,40.27
2022-08-30T12:49:57.641Z,39.23
2022-08-30T12:55:17.687Z,39.43
2022-08-30T13:00:28.198Z,38.34
2022-08-30T13:05:48.203Z,37.38
2022-08-30T13:10:56.054Z,37.71
2022-08-30T13:16:11.883Z,37.66
2022-08-30T13:21:27.900Z,36.76
2022-08-30T13:26:34.915Z,36.88
2022-08-30T13:31:40.055Z,36.38
2022-08-30T13:36:48.482Z,36.18
2022-08-30T13:41:52.926Z,36.57
2022-08-30T13:47:32.026Z,36.24
2022-08-30T13:52:24.606Z,36.78
2022-08-30T14:02:57.590Z,37.28
2022-08-30T14:08:04.661Z,37.25
2022-08-30T14:13:10.071Z,36.97
2022-08-30T14:18:18.035Z,37.08
2022-08-30T14:23:22.276Z,37.06
2022-08-30T14:28:28.487Z,36.60
2022-08-30T14:33:33.527Z,36.75
2022-08-30T14:38:37.708Z,36.57
2022-08-30T14:43:41.697Z,37.17
2022-08-30T14:48:47.042Z,37.73
2022-08-30T14:53:53.237Z,37.77
2022-08-30T14:59:00.685Z,37.50
2022-08-30T15:04:06.278Z,38.16
2022-08-30T15:09:14.028Z,38.52
2022-08-30T15:14:19.522Z,38.54
2022-08-30T15:19:25.068Z,38.84
2022-08-30T15:24:29.915Z,38.51
2022-08-30T15:29:34.078Z,38.83
2022-08-30T15:34:39.368Z,38.97
2022-08-30T15:39:43.149Z,38.86
2022-08-30T15:44:46.975Z,39.11
2022-08-30T15:49:57.295Z,38.91
2022-08-30T15:55:01.994Z,39.76
2022-08-30T16:00:07.829Z,39.40
2022-08-30T16:05:13.479Z,38.67
2022-08-30T16:10:17.734Z,38.85
2022-08-30T16:15:22.467Z,39.26
2022-08-30T16:20:28.125Z,39.01
2022-08-30T16:25:39.887Z,39.01
2022-08-30T16:30:44.763Z,39.42
2022-08-30T16:35:53.031Z,39.50
2022-08-30T16:40:57.018Z,38.63
2022-08-30T16:46:01.769Z,38.92
2022-08-30T16:51:10.566Z,39.87
2022-08-30T16:56:16.824Z,40.59
2022-08-30T17:01:22.418Z,41.58
2022-08-30T17:06:27.890Z,42.05
2022-08-30T17:11:31.658Z,42.37
2022-08-30T17:16:36.951Z,42.83
2022-08-30T17:21:42.214Z,43.60
2022-08-30T17:26:46.110Z,43.82
2022-08-30T17:31:51.165Z,43.83
2022-08-30T17:36:59.742Z,43.97
2022-08-30T17:42:03.524Z,43.76
2022-08-30T17:47:07.312Z,43.86
2022-08-30T17:52:12.752Z,44.13
2022-08-30T17:57:16.961Z,44.53
2022-08-30T18:02:22.860Z,44.72
2022-08-30T18:07:35.888Z,45.32
2022-08-30T18:12:40.501Z,45.78
2022-08-30T18:17:49.058Z,46.05
2022-08-30T18:22:54.791Z,46.54
2022-08-30T18:27:59.104Z,46.83
2022-08-30T18:33:03.133Z,46.99
2022-08-30T18:38:12.558Z,47.29
2022-08-30T18:43:18.263Z,48.31
2022-08-30T18:48:28.252Z,49.31
2022-08-30T18:53:35.268Z,48.45
2022-08-30T18:58:40.376Z,48.50
2022-08-30T19:03:48.500Z,48.76
2022-08-30T19:08:53.710Z,49.15
2022-08-30T19:13:57.445Z,49.57
2022-08-30T19:19:01.187Z,49.71
2022-08-30T19:24:06.806Z,49.50
2022-08-30T19:29:12.356Z,49.93
2022-08-30T19:34:16.155Z,50.01
2022-08-30T19:39:21.256Z,50.35
2022-08-30T19:44:25.817Z,50.58
2022-08-30T19:49:29.624Z,50.81
2022-08-30T19:54:36.958Z,51.26
2022-08-30T19:59:40.873Z,51.38
2022-08-30T20:04:44.745Z,51.52
2022-08-30T20:09:53.105Z,51.84
2022-08-30T20:14:56.897Z,52.45
2022-08-30T20:20:04.134Z,52.67
2022-08-30T20:25:11.907Z,53.19
2022-08-30T20:30:22.368Z,53.96
2022-08-30T20:35:26.170Z,54.57
2022-08-30T20:40:31.279Z,55.67
2022-08-30T20:45:35.231Z,56.55
2022-08-30T20:50:39.159Z,57.34
2022-08-30T20:55:45.647Z,58.70
2022-08-30T21:00:51.540Z,60.77
2022-08-30T21:05:55.508Z,60.75
2022-08-30T21:11:00.865Z,62.92
2022-08-30T21:16:05.420Z,64.50
2022-08-30T21:21:10.352Z,64.88
2022-08-30T21:26:15.502Z,66.48
2022-08-30T21:31:25.387Z,67.77
2022-08-30T21:36:47.962Z,70.01
2022-08-30T21:41:56.815Z,70.46
2022-08-30T21:47:00.652Z,72.98
2022-08-30T21:52:04.952Z,73.47
2022-08-30T21:57:10.116Z,74.15
2022-08-30T22:02:13.946Z,76.77
2022-08-30T22:07:17.842Z,78.81
2022-08-30T22:12:23.019Z,79.70
2022-08-30T22:17:29.717Z,80.79
2022-08-30T22:22:33.642Z,82.16
2022-08-30T22:27:38.711Z,85.06
2022-08-30T22:32:42.431Z,86.24
2022-08-30T22:37:47.607Z,88.83
2022-08-30T22:42:58.229Z,90.80
2022-08-30T22:48:02.301Z,92.76
2022-08-30T22:53:06.765Z,94.82
2022-08-30T22:58:11.922Z,97.08
2022-08-30T23:03:15.679Z,97.70
2022-08-30T23:08:19.508Z,99.49
2022-08-30T23:13:24.791Z,100.00
2022-08-30T23:18:28.500Z,100.00
2022-08-30T23:23:49.934Z,100.00
2022-08-30T23:29:12.600Z,100.00
2022-08-30T23:34:34.066Z,100.00
2022-08-30T23:39:56.446Z,100.00
2022-08-30T23:45:19.104Z,100.00
2022-08-30T23:50:40.394Z,100.00
2022-08-30T23:56:01.865Z,100.00
